Time;durP1;ratioP1;P1;durP2;ratioP2;P2;SDS_P1;SDS_P2;PMS_P1;PMS_P2;Temp;Humidity;BMP_temperature;BMP_pressure;BME280_temperature;BME280_humidity;BME280_pressure;Samples;Min_cycle;Max_cycle;Signal;HPM_P1;HPM_P2
2021/01/19 00:00:27;;;;;;;21.67;15.67;;;;;;;-18.73;100.00;99637.02;1852199;77;22682;-73
2021/01/19 00:03:00;;;;;;;44.35;22.50;;;;;;;-18.75;100.00;99639.30;1819916;78;20892;-72
2021/01/19 00:05:32;;;;;;;35.33;20.25;;;;;;;-18.74;100.00;99637.08;1745478;82;21894;-73
2021/01/19 00:08:10;;;;;;;28.40;19.17;;;;;;;-18.76;100.00;99639.75;1812334;78;21609;-73
2021/01/19 00:10:39;;;;;;;25.05;19.60;;;;;;;-18.79;100.00;99646.72;1787812;80;20999;-75
2021/01/19 00:13:20;;;;;;;37.23;21.12;;;;;;;-18.84;100.00;99647.73;1787522;80;21554;-76
2021/01/19 00:15:48;;;;;;;89.17;38.50;;;;;;;-18.87;100.00;99645.77;1787624;80;20900;-75
2021/01/19 00:18:17;;;;;;;77.62;32.95;;;;;;;-18.90;100.00;99648.47;1768335;80;21200;-75
2021/01/19 00:20:47;;;;;;;73.42;28.05;;;;;;;-18.90;100.00;99651.03;1768448;80;21039;-75
2021/01/19 00:23:16;;;;;;;89.77;36.05;;;;;;;-18.92;100.00;99648.98;1787652;80;20987;-75
2021/01/19 00:25:46;;;;;;;88.52;32.98;;;;;;;-18.93;100.00;99646.88;1787586;80;20909;-74
2021/01/19 00:28:17;;;;;;;54.45;25.92;;;;;;;-18.92;100.00;99648.98;1787707;80;20912;-75
2021/01/19 00:31:13;;;;;;;97.97;35.73;;;;;;;-18.89;100.00;99654.78;1852336;77;23920;-74
2021/01/19 00:33:51;;;;;;;57.50;28.57;;;;;;;-18.93;100.00;99650.72;1820370;78;20892;-74
2021/01/19 00:36:33;;;;;;;61.40;25.48;;;;;;;-18.92;100.00;99647.70;1814400;78;21869;-74
2021/01/19 00:39:21;;;;;;;72.58;31.97;;;;;;;-18.92;100.00;99644.69;1702440;82;21031;-76
2021/01/19 00:42:15;;;;;;;47.33;22.90;;;;;;;-18.90;100.00;99644.63;1779808;80;21031;-76
2021/01/19 00:45:02;;;;;;;85.53;34.60;;;;;;;-18.90;100.00;99642.89;1742098;82;20978;-77
2021/01/19 00:48:12;;;;;;;;;;;;;;;;;;;;;
2021/01/19 00:50:53;;;;;;;37.20;19.50;;;;;;;-18.87;100.00;99643.21;1747252;82;21031;-75
2021/01/19 00:53:18;;;;;;;62.03;30.17;;;;;;;-18.87;100.00;99634.25;1816326;78;21529;-76
2021/01/19 00:55:54;;;;;;;42.65;19.32;;;;;;;-18.85;100.00;99638.41;1750075;81;21031;-76
2021/01/19 00:58:25;;;;;;;50.12;26.68;;;;;;;-18.86;100.00;99634.20;1819865;78;21062;-75
2021/01/19 01:01:01;;;;;;;65.25;28.05;;;;;;;-18.82;100.00;99635.70;1787103;78;21003;-75
2021/01/19 01:03:43;;;;;;;77.03;32.60;;;;;;;-18.79;100.00;99635.20;1819834;78;21421;-76
2021/01/19 01:06:18;;;;;;;75.90;30.45;;;;;;;-18.77;100.00;99632.12;1749869;82;21034;-75
2021/01/19 01:08:56;;;;;;;93.30;40.00;;;;;;;-18.75;100.00;99633.69;1814415;78;21501;-75
2021/01/19 01:11:24;;;;;;;93.22;38.55;;;;;;;-18.73;100.00;99634.91;1787497;80;21505;-75
2021/01/19 01:13:55;;;;;;;71.87;30.92;;;;;;;-18.70;100.00;99639.89;1757688;80;21482;-75
2021/01/19 01:16:23;;;;;;;37.00;23.42;;;;;;;-18.72;100.00;99637.84;1787579;80;22241;-75
2021/01/19 01:18:57;;;;;;;44.23;21.42;;;;;;;-18.73;100.00;99643.42;1787521;80;20912;-75
2021/01/19 01:21:27;;;;;;;67.62;29.37;;;;;;;-18.74;100.00;99641.73;1768225;80;20939;-74
2021/01/19 01:24:01;;;;;;;57.83;28.65;;;;;;;-18.76;100.00;99635.91;1787559;80;21046;-75
2021/01/19 01:26:29;;;;;;;74.62;34.03;;;;;;;-18.76;100.00;99642.73;1787630;80;21101;-75
2021/01/19 01:29:02;;;;;;;41.33;20.77;;;;;;;-18.79;100.00;99638.58;1787336;80;21461;-75
2021/01/19 01:31:34;;;;;;;38.35;22.85;;;;;;;-18.80;100.00;99634.38;1787445;79;21000;-74
2021/01/19 01:34:06;;;;;;;70.67;33.08;;;;;;;-18.83;100.00;99633.23;1794590;78;20944;-75
2021/01/19 01:36:40;;;;;;;34.88;18.37;;;;;;;-18.85;100.00;99629.45;1812320;78;21051;-75
2021/01/19 01:39:14;;;;;;;52.27;27.80;;;;;;;-18.87;100.00;99629.95;1814563;78;21093;-75
2021/01/19 01:41:46;;;;;;;40.00;22.02;;;;;;;-18.88;100.00;99637.72;1789669;80;22199;-75
2021/01/19 01:44:17;;;;;;;20.23;15.83;;;;;;;-18.93;100.00;99632.80;1787291;80;21015;-75
2021/01/19 01:46:52;;;;;;;45.95;26.37;;;;;;;-18.95;100.00;99635.05;1791190;79;20909;-73
2021/01/19 01:49:20;;;;;;;39.20;20.15;;;;;;;-18.97;100.00;99641.49;1791104;80;20988;-74
2021/01/19 01:51:49;;;;;;;35.05;21.50;;;;;;;-18.98;100.00;99635.15;1789569;80;21016;-74
2021/01/19 01:54:18;;;;;;;44.67;24.05;;;;;;;-18.99;100.00;99638.16;1749480;82;21325;-74
2021/01/19 01:56:49;;;;;;;36.28;20.68;;;;;;;-18.99;100.00;99636.88;1786966;80;21031;-74
2021/01/19 01:59:18;;;;;;;43.13;23.73;;;;;;;-19.00;100.00;99637.80;1749494;82;21049;-74
2021/01/19 02:01:50;;;;;;;40.83;23.75;;;;;;;-19.02;100.00;99646.80;1786911;80;21011;-74
2021/01/19 02:04:45;;;;;;;43.17;24.40;;;;;;;-18.99;100.00;99642.45;1852098;77;22699;-73
2021/01/19 02:07:45;;;;;;;51.08;24.63;;;;;;;-19.04;100.00;99649.05;1788533;78;21476;-73
2021/01/19 02:10:32;;;;;;;26.20;16.70;;;;;;;-19.04;100.00;99650.33;1750025;81;21190;-74
2021/01/19 02:13:40;;;;;;;27.45;18.87;;;;;;;-19.07;100.00;99648.73;1747698;81;20975;-74
2021/01/19 02:16:34;;;;;;;20.20;16.17;;;;;;;-19.03;100.00;99646.43;1820011;77;22734;-73
2021/01/19 02:19:53;;;;;;;;;;;;;;;;;;;;;
2021/01/19 02:23:15;;;;;;;33.17;21.33;;;;;;;-18.99;100.00;99638.16;1846356;77;22202;-73
2021/01/19 02:26:33;;;;;;;38.00;20.90;;;;;;;-19.05;100.00;99642.28;1823655;78;21467;-74
2021/01/19 02:29:30;;;;;;;33.65;18.42;;;;;;;-19.06;100.00;99644.44;1823591;78;21186;-74
2021/01/19 02:32:24;;;;;;;27.60;18.55;;;;;;;-19.11;100.00;99640.79;1823646;78;20953;-74
2021/01/19 02:35:04;;;;;;;36.42;17.42;;;;;;;-19.10;100.00;99646.77;1822625;78;21027;-74
2021/01/19 02:37:41;;;;;;;21.65;17.23;;;;;;;-19.11;100.00;99643.34;1764558;81;21627;-74
2021/01/19 02:40:31;;;;;;;60.58;31.02;;;;;;;-19.07;100.00;99649.18;1804352;77;28521;-72
2021/01/19 02:43:23;;;;;;;53.87;22.90;;;;;;;-19.10;100.00;99646.30;1730424;81;20983;-73
2021/01/19 02:45:54;;;;;;;41.75;22.45;;;;;;;-19.11;100.00;99639.51;1766225;81;21365;-75
2021/01/19 02:48:26;;;;;;;39.88;21.80;;;;;;;-19.15;100.00;99640.55;1756361;81;20952;-75
2021/01/19 02:50:55;;;;;;;24.25;18.87;;;;;;;-19.19;100.00;99637.73;1766172;81;20959;-74
2021/01/19 02:53:28;;;;;;;38.95;22.02;;;;;;;-19.25;100.00;99633.71;1756426;81;20960;-74
2021/01/19 02:55:56;;;;;;;25.48;18.00;;;;;;;-19.25;100.00;99640.56;1766146;81;21049;-75
2021/01/19 02:59:05;;;;;;;37.28;21.35;;;;;;;-19.29;100.00;99647.52;1756407;81;21341;-75
2021/01/19 03:01:48;;;;;;;42.33;21.62;;;;;;;-19.32;100.00;99643.81;1756315;81;21015;-74
2021/01/19 03:04:32;;;;;;;54.00;24.57;;;;;;;-19.33;100.00;99642.58;1766122;81;20960;-74
2021/01/19 03:07:19;;;;;;;40.80;19.62;;;;;;;-19.37;100.00;99648.71;1754949;81;21015;-74
2021/01/19 03:09:58;;;;;;;;;;;;;;;;;;;;;
2021/01/19 03:12:43;;;;;;;36.03;22.40;;;;;;;-19.37;100.00;99643.17;1877307;76;23797;-75
2021/01/19 03:15:18;;;;;;;52.50;22.32;;;;;;;-19.46;100.00;99637.97;1817362;79;21465;-76
2021/01/19 03:17:48;;;;;;;43.98;20.12;;;;;;;-19.52;100.00;99630.99;1817209;79;21140;-76
2021/01/19 03:20:22;;;;;;;30.92;17.80;;;;;;;-19.58;100.00;99630.80;1817045;79;20948;-76
2021/01/19 03:22:57;;;;;;;33.08;18.15;;;;;;;-19.62;100.00;99628.42;1817322;79;21002;-75
2021/01/19 03:25:29;;;;;;;38.25;19.60;;;;;;;-19.67;100.00;99625.63;1816811;79;20919;-76
2021/01/19 03:28:07;;;;;;;33.35;20.82;;;;;;;-19.72;100.00;99630.09;1817358;79;21482;-75
2021/01/19 03:30:40;;;;;;;31.65;20.20;;;;;;;-19.74;100.00;99632.33;1781762;79;21646;-75
2021/01/19 03:33:08;;;;;;;48.73;24.98;;;;;;;-19.75;100.00;99631.51;1817252;79;20925;-75
2021/01/19 03:35:44;;;;;;;38.13;23.27;;;;;;;-19.76;100.00;99637.52;1817434;79;21466;-75
2021/01/19 03:38:14;;;;;;;35.58;19.95;;;;;;;-19.81;100.00;99636.88;1817266;79;21094;-76
2021/01/19 03:40:47;;;;;;;37.55;21.48;;;;;;;-19.86;100.00;99634.95;1817284;79;21478;-77
2021/01/19 03:43:18;;;;;;;70.67;26.93;;;;;;;-19.89;100.00;99641.44;1815364;79;21473;-75
2021/01/19 03:45:56;;;;;;;27.50;19.85;;;;;;;-19.90;100.00;99638.51;1817285;79;21481;-74
2021/01/19 03:48:25;;;;;;;30.05;21.45;;;;;;;-19.92;100.00;99639.83;1817218;79;20999;-75
2021/01/19 03:50:55;;;;;;;33.85;19.42;;;;;;;-19.93;100.00;99640.73;1817245;79;20932;-75
2021/01/19 03:53:24;;;;;;;20.50;15.95;;;;;;;-19.94;100.00;99647.17;1817291;79;20960;-75
2021/01/19 03:55:53;;;;;;;54.93;26.55;;;;;;;-19.96;100.00;99643.42;1817273;79;21169;-74
2021/01/19 03:58:29;;;;;;;36.63;22.87;;;;;;;-19.95;100.00;99650.63;1817112;79;21031;-74
2021/01/19 04:00:57;;;;;;;31.73;18.02;;;;;;;-19.94;100.00;99652.28;1817282;78;20912;-75
2021/01/19 04:03:26;;;;;;;;;;;;;;;-19.94;100.00;99647.17;1819904;78;20995;-74
2021/01/19 04:05:55;;;;;;;29.75;15.98;;;;;;;-19.92;100.00;99654.34;1783638;79;20137;-74
2021/01/19 04:08:24;;;;;;;44.23;24.57;;;;;;;-19.92;100.00;99650.51;1817296;78;21114;-74
2021/01/19 04:10:53;;;;;;;50.40;24.47;;;;;;;-19.94;100.00;99651.01;1780204;79;21506;-74
2021/01/19 04:13:21;;;;;;;32.05;20.65;;;;;;;-19.94;100.00;99652.28;1801249;79;21051;-74
2021/01/19 04:15:52;;;;;;;42.90;21.65;;;;;;;-19.97;100.00;99644.75;1801295;79;20873;-74
2021/01/19 04:18:23;;;;;;;32.95;20.85;;;;;;;-19.99;100.00;99649.91;1801187;79;20956;-74
2021/01/19 04:20:56;;;;;;;35.73;18.20;;;;;;;-20.00;100.00;99649.98;1801207;79;21294;-74
2021/01/19 04:23:27;;;;;;;52.75;25.62;;;;;;;-20.01;100.00;99647.02;1800881;79;21546;-74
2021/01/19 04:25:57;;;;;;;42.03;23.32;;;;;;;-20.06;100.00;99654.86;1800661;79;21031;-74
2021/01/19 04:28:25;;;;;;;61.50;28.98;;;;;;;-20.14;100.00;99644.94;1793762;79;21541;-74
2021/01/19 04:30:54;;;;;;;60.80;28.53;;;;;;;-20.15;100.00;99643.73;1783666;78;21007;-75
2021/01/19 04:33:25;;;;;;;53.63;27.33;;;;;;;-20.15;100.00;99650.13;1732653;82;21592;-74
2021/01/19 04:35:55;;;;;;;87.87;38.97;;;;;;;-20.20;100.00;99650.75;1707379;82;20994;-74
2021/01/19 04:38:26;;;;;;;103.57;44.13;;;;;;;-20.22;100.00;99651.24;1742570;81;21601;-74
2021/01/19 04:41:00;;;;;;;53.80;27.80;;;;;;;-20.24;100.00;99647.45;1743777;81;20995;-74
2021/01/19 04:43:40;;;;;;;70.65;32.35;;;;;;;-20.25;100.00;99645.80;1743893;82;20968;-74
2021/01/19 04:46:12;;;;;;;66.30;28.47;;;;;;;-20.26;100.00;99647.95;1739646;82;21354;-74
2021/01/19 04:48:56;;;;;;;;;;;;;;;;;;;;;
2021/01/19 04:51:44;;;;;;;27.83;20.27;;;;;;;-20.34;100.00;99646.97;1714220;82;21003;-75
2021/01/19 04:54:22;;;;;;;49.50;26.43;;;;;;;-20.46;100.00;99643.59;1714257;83;21022;-75
2021/01/19 04:56:54;;;;;;;48.40;27.52;;;;;;;-20.55;100.00;99647.36;1720391;82;20931;-74
2021/01/19 04:59:26;;;;;;;27.50;21.50;;;;;;;-20.65;100.00;99640.08;1741187;82;21361;-75
2021/01/19 05:02:07;;;;;;;33.42;22.37;;;;;;;-20.79;100.00;99643.97;1735880;82;21006;-74
2021/01/19 05:04:53;;;;;;;42.87;26.30;;;;;;;-20.88;100.00;99656.22;1714383;83;20987;-74
2021/01/19 05:07:33;;;;;;;40.20;21.77;;;;;;;-21.00;100.00;99658.30;1714259;83;20943;-74
2021/01/19 05:10:12;;;;;;;56.73;23.07;;;;;;;-21.06;100.00;99664.07;1714110;82;21019;-74
2021/01/19 05:12:45;;;;;;;49.80;28.27;;;;;;;-21.13;100.00;99664.71;1735232;81;22520;-74
2021/01/19 05:15:17;;;;;;;43.37;22.97;;;;;;;-21.16;100.00;99667.79;1736703;82;21511;-74
2021/01/19 05:17:47;;;;;;;43.13;23.67;;;;;;;-21.22;100.00;99667.12;1754733;81;21539;-74
2021/01/19 05:20:20;;;;;;;43.77;21.47;;;;;;;-21.28;100.00;99658.86;1754559;81;20922;-74
2021/01/19 05:22:50;;;;;;;31.63;20.73;;;;;;;-21.33;100.00;99653.91;1754596;81;20910;-74
2021/01/19 05:25:20;;;;;;;54.37;26.83;;;;;;;-21.39;100.00;99664.33;1754687;81;21207;-74
2021/01/19 05:27:51;;;;;;;31.93;21.77;;;;;;;-21.49;100.00;99660.42;1754744;81;20933;-74
2021/01/19 05:30:21;;;;;;;45.43;26.93;;;;;;;-21.54;100.00;99669.93;1733746;81;20921;-74
2021/01/19 05:36:28;;;;;;;44.50;25.30;;;;;;;-21.61;100.00;99676.11;1754648;81;20997;-74
2021/01/19 05:39:00;;;;;;;41.57;25.17;;;;;;;-21.66;100.00;99674.97;1752655;81;21206;-75
2021/01/19 05:41:50;;;;;;;24.93;20.00;;;;;;;-21.69;100.00;99675.08;1820329;77;22832;-75
2021/01/19 05:44:30;;;;;;;44.40;22.90;;;;;;;-21.80;100.00;99678.39;1756713;81;20913;-75
2021/01/19 05:47:06;;;;;;;38.43;24.83;;;;;;;-21.81;100.00;99681.38;1766333;81;21420;-76
2021/01/19 05:49:41;;;;;;;37.93;24.00;;;;;;;-21.88;100.00;99675.64;1727251;80;21023;-76
2021/01/19 05:52:15;;;;;;;38.77;23.60;;;;;;;-21.91;100.00;99682.55;1735790;82;21495;-75
2021/01/19 05:54:50;;;;;;;40.20;23.90;;;;;;;-21.93;100.00;99681.76;1735957;82;21008;-75
2021/01/19 05:57:23;;;;;;;41.47;23.93;;;;;;;-21.96;100.00;99680.59;1735805;82;21431;-75
2021/01/19 06:00:02;;;;;;;34.93;23.30;;;;;;;-22.00;100.00;99683.65;1732748;82;22310;-75
2021/01/19 06:02:42;;;;;;;37.07;20.83;;;;;;;-22.01;100.00;99678.63;1735100;82;21526;-75
2021/01/19 06:05:20;;;;;;;36.90;23.98;;;;;;;-22.02;100.00;99673.94;1685222;82;20937;-76
2021/01/19 06:16:09;;;;;;;;;;;;;;;;;;;;;
2021/01/19 06:40:38;;;;;;;84.37;34.23;;;;;;;-21.79;100.00;99684.72;1749731;78;24211;-72
2021/01/19 06:51:02;;;;;;;39.40;26.40;;;;;;;-21.66;100.00;99692.80;1654035;83;21382;-74
2021/01/19 07:43:13;;;;;;;54.58;23.60;;;;;;;-20.29;100.00;99718.30;1745005;78;21245;-73
2021/01/19 07:46:02;;;;;;;40.48;25.82;;;;;;;-20.17;100.00;99723.41;1717955;80;21707;-75
2021/01/19 07:49:07;;;;;;;52.55;27.58;;;;;;;-20.28;100.00;99722.53;1661019;83;21216;-75
2021/01/19 08:38:48;;;;;;;29.20;19.67;;;;;;;-18.79;100.00;99740.15;1676507;82;23041;-72
2021/01/19 08:41:18;;;;;;;48.90;25.43;;;;;;;-18.71;100.00;99738.91;1592740;89;21221;-74
2021/01/19 08:44:08;;;;;;;52.00;24.87;;;;;;;-18.48;100.00;99744.33;1586328;88;21414;-75
2021/01/19 09:34:31;;;;;;;44.65;20.97;;;;;;;-15.83;100.00;99726.77;1730246;79;21272;-74
2021/01/19 09:37:19;;;;;;;;;;;;;;;;;;;;;
2021/01/19 10:25:31;;;;;;;31.70;17.57;;;;;;;-14.74;100.00;99693.63;1741213;81;28816;-75
2021/01/19 10:39:08;;;;;;;36.33;15.03;;;;;;;-14.32;100.00;99675.66;1771107;78;27697;-77
2021/01/19 10:42:06;;;;;;;21.65;11.95;;;;;;;-14.40;100.00;99667.11;1715408;82;21046;-75
2021/01/19 10:45:11;;;;;;;18.20;12.67;;;;;;;-14.42;100.00;99668.95;1825424;77;27598;-75
2021/01/19 10:47:49;;;;;;;29.02;15.05;;;;;;;-14.51;100.00;99663.87;1824779;78;21572;-76
2021/01/19 11:04:27;;;;;;;36.08;20.57;;;;;;;-13.74;86.70;99662.20;1697533;82;21067;-74
2021/01/19 11:07:04;;;;;;;32.67;16.73;;;;;;;-14.55;89.51;99649.99;1690157;83;21334;-75
2021/01/19 11:20:30;;;;;;;34.30;20.60;;;;;;;-14.07;92.11;99645.33;1738732;81;28158;-74
2021/01/19 11:26:18;;;;;;;18.87;12.68;;;;;;;-13.84;92.11;99636.14;1844115;77;27177;-75
2021/01/19 11:28:57;;;;;;;31.35;15.25;;;;;;;-13.81;90.03;99635.97;1822936;78;21048;-75
2021/01/19 11:31:33;;;;;;;39.63;19.10;;;;;;;-13.72;90.13;99628.09;1821801;78;21353;-75
2021/01/19 11:34:15;;;;;;;;;;;;;;;;;;;;;
2021/01/19 11:58:03;;;;;;;30.05;14.65;;;;;;;-13.97;90.87;99596.56;1826594;75;21184;-75
2021/01/19 12:51:06;;;;;;;;;;;;;;;;;;;;;
2021/01/19 12:54:37;;;;;;;47.60;23.02;;;;;;;-12.79;85.74;99598.66;1651900;86;21205;-75
2021/01/19 14:10:56;;;;;;;;;;;;;;;;;;;;;
2021/01/19 14:14:20;;;;;;;49.13;24.75;;;;;;;-15.40;100.00;99638.19;1753986;80;21377;-77
2021/01/19 14:17:26;;;;;;;;;;;;;;;;;;;;;
2021/01/19 14:20:18;;;;;;;26.45;14.98;;;;;;;-15.58;100.00;99637.92;1750898;81;21542;-78
2021/01/19 16:30:52;;;;;;;182.88;70.95;;;;;;;-19.14;100.00;99635.81;1760627;78;90927;-76
2021/01/19 16:33:28;;;;;;;210.97;80.38;;;;;;;-19.27;100.00;99643.63;1771925;80;21240;-76
2021/01/19 16:36:57;;;;;;;272.30;89.00;;;;;;;-19.25;100.00;99641.38;1821092;78;28539;-75
2021/01/19 16:46:58;;;;;;;222.25;80.47;;;;;;;-19.52;100.00;99650.16;1738967;78;21213;-75
2021/01/19 16:50:18;;;;;;;209.37;75.00;;;;;;;-19.70;100.00;99641.09;1800150;78;22326;-77
2021/01/19 16:53:09;;;;;;;128.67;46.47;;;;;;;-19.75;100.00;99641.73;1809012;78;23082;-75
2021/01/19 16:58:40;;;;;;;134.30;49.80;;;;;;;-19.66;100.00;99634.13;1788974;80;21171;-74
2021/01/19 17:30:25;;;;;;;;;;;;;;;;;;;;;
2021/01/19 17:40:51;;;;;;;202.63;76.87;;;;;;;-19.67;100.00;99633.30;1682254;84;21482;-74
2021/01/19 18:03:04;;;;;;;;;;;;;;;;;;;;;
2021/01/19 18:21:22;;;;;;;277.90;108.73;;;;;;;-20.55;100.00;99667.78;1745329;73;21846;31
2021/01/19 18:24:00;;;;;;;262.80;107.73;;;;;;;-20.47;100.00;99667.92;1703918;82;21370;-74
2021/01/19 18:26:55;;;;;;;284.98;118.60;;;;;;;-20.49;100.00;99663.31;1708077;82;21201;-74
2021/01/19 18:29:27;;;;;;;356.40;137.10;;;;;;;-20.58;100.00;99669.59;1699068;82;21310;-74
2021/01/19 18:31:58;;;;;;;367.30;133.10;;;;;;;-20.72;100.00;99666.28;1683481;83;21632;-74
2021/01/19 18:34:36;;;;;;;327.40;127.57;;;;;;;-20.82;100.00;99664.50;1702563;83;21329;-74
2021/01/19 18:37:15;;;;;;;384.43;139.30;;;;;;;-20.76;100.00;99665.54;1681608;83;21525;-75
2021/01/19 18:39:47;;;;;;;279.57;109.27;;;;;;;-20.71;100.00;99663.28;1659354;84;21527;-74
2021/01/19 18:42:53;;;;;;;239.13;86.77;;;;;;;-20.75;100.00;99663.81;1794581;77;22582;-75
2021/01/19 18:45:41;;;;;;;184.93;71.07;;;;;;;-20.86;100.00;99662.93;1789420;78;20983;-75
2021/01/19 18:55:52;;;;;;;216.37;91.37;;;;;;;-20.84;100.00;99662.89;1759383;80;20992;-74
